Time;durP1;ratioP1;P1;durP2;ratioP2;P2;SDS_P1;SDS_P2;PMS_P1;PMS_P2;Temp;Humidity;BMP_temperature;BMP_pressure;BME280_temperature;BME280_humidity;BME280_pressure;Samples;Min_cycle;Max_cycle;Signal;HPM_P1;HPM_P2
2022/04/26 03:36:19;;;;;;;20.40;9.15;;;6.90;99.90;;;;;;5047826;28;20056;-71
2022/04/26 03:38:47;;;;;;;24.55;9.50;;;6.90;99.90;;;;;;5047039;28;20041;-71
2022/04/26 03:41:16;;;;;;;22.33;8.77;;;6.90;99.90;;;;;;5028634;28;20056;-71
2022/04/26 03:43:42;;;;;;;18.40;8.93;;;7.20;99.90;;;;;;5048683;28;20420;-71
2022/04/26 03:46:07;;;;;;;20.40;8.90;;;6.90;99.90;;;;;;5028537;28;20090;-71
2022/04/26 03:48:33;;;;;;;22.23;8.80;;;6.90;99.90;;;;;;5047959;28;20416;-71
2022/04/26 03:51:02;;;;;;;20.23;8.15;;;6.80;99.90;;;;;;5048029;28;20048;-71
2022/04/26 03:53:27;;;;;;;22.65;8.75;;;6.80;99.90;;;;;;5046652;28;20053;-71
2022/04/26 03:55:53;;;;;;;19.10;8.95;;;6.80;99.90;;;;;;5046803;28;20191;-71
2022/04/26 03:58:18;;;;;;;14.40;7.38;;;6.80;99.90;;;;;;5047588;28;20544;-71
2022/04/26 04:00:44;;;;;;;19.40;7.35;;;6.80;99.90;;;;;;5046974;28;20037;-71
2022/04/26 04:03:10;;;;;;;19.58;7.78;;;6.80;99.90;;;;;;5048253;28;20434;-71
2022/04/26 04:05:35;;;;;;;17.33;7.82;;;6.80;99.90;;;;;;5047759;28;20048;-71
2022/04/26 04:08:01;;;;;;;17.27;7.55;;;6.80;99.90;;;;;;5046284;28;20037;-71
2022/04/26 04:10:27;;;;;;;20.52;8.07;;;6.80;99.90;;;;;;5047022;28;20500;-71
2022/04/26 04:12:52;;;;;;;17.55;7.20;;;6.80;99.90;;;;;;5025884;28;20461;-72
2022/04/26 04:15:18;;;;;;;19.75;7.65;;;6.80;99.90;;;;;;5022123;28;20480;-70
2022/04/26 04:17:44;;;;;;;17.30;6.55;;;6.90;99.90;;;;;;5045765;28;20072;-72
2022/04/26 04:20:11;;;;;;;16.90;6.63;;;7.40;99.90;;;;;;5048729;28;20037;-71
2022/04/26 04:22:37;;;;;;;18.30;6.38;;;7.00;99.90;;;;;;5049227;28;20080;-70
2022/04/26 04:25:03;;;;;;;16.02;5.75;;;7.00;99.90;;;;;;5050269;28;20410;-71
2022/04/26 04:27:31;;;;;;;17.60;5.80;;;7.00;99.90;;;;;;5049924;28;20041;-71
2022/04/26 04:30:01;;;;;;;14.73;5.93;;;7.00;99.90;;;;;;5050824;28;20056;-71
2022/04/26 04:32:27;;;;;;;14.38;6.32;;;7.10;99.90;;;;;;5050861;28;20140;-71
2022/04/26 04:34:53;;;;;;;13.10;5.43;;;7.00;99.90;;;;;;5049567;28;20067;-71
2022/04/26 04:37:19;;;;;;;15.32;5.45;;;7.10;99.90;;;;;;5031944;28;20128;-71
2022/04/26 04:39:44;;;;;;;14.90;5.78;;;7.10;99.90;;;;;;5049793;28;20041;-71
2022/04/26 04:42:10;;;;;;;16.02;5.40;;;7.10;99.90;;;;;;5051269;28;20049;-71
2022/04/26 04:44:35;;;;;;;16.27;6.45;;;7.40;99.90;;;;;;5051008;28;20045;-71
2022/04/26 04:47:01;;;;;;;14.07;5.57;;;7.00;99.90;;;;;;5050243;28;20045;-72
2022/04/26 04:49:27;;;;;;;18.77;6.75;;;7.00;99.90;;;;;;5032010;28;20128;-71
2022/04/26 04:51:52;;;;;;;21.25;6.47;;;7.10;99.90;;;;;;5031810;28;20064;-71
2022/04/26 04:54:18;;;;;;;11.73;5.70;;;7.00;99.90;;;;;;5049397;28;20049;-71
2022/04/26 04:56:43;;;;;;;14.55;6.28;;;7.00;99.90;;;;;;5048899;28;20047;-71
2022/04/26 04:59:09;;;;;;;15.63;6.93;;;7.10;99.90;;;;;;5050595;28;20513;-71
2022/04/26 05:01:34;;;;;;;13.77;6.15;;;7.20;99.90;;;;;;5032545;28;20052;-71
2022/04/26 05:04:00;;;;;;;15.30;6.30;;;7.10;99.90;;;;;;5017470;28;20048;-71
2022/04/26 05:06:26;;;;;;;12.65;6.40;;;7.20;99.90;;;;;;5032209;28;20052;-71
2022/04/26 05:08:51;;;;;;;14.13;5.63;;;7.20;99.90;;;;;;5048880;28;20057;-71
2022/04/26 05:11:17;;;;;;;17.17;6.28;;;7.20;99.90;;;;;;5048789;28;20045;-71
2022/04/26 05:13:42;;;;;;;12.20;5.50;;;7.30;99.90;;;;;;5050473;28;20480;-71
2022/04/26 05:16:08;;;;;;;12.82;5.80;;;7.30;99.90;;;;;;5049832;28;20448;-71
2022/04/26 05:18:34;;;;;;;14.35;5.75;;;7.30;99.90;;;;;;5049141;28;20040;-71
2022/04/26 05:20:59;;;;;;;12.85;5.63;;;7.30;99.90;;;;;;5049158;28;20041;-72
2022/04/26 05:26:09;;;;;;;15.50;5.75;;;7.40;99.90;;;;;;5049576;28;20053;-71
2022/04/26 05:28:34;;;;;;;14.18;5.47;;;7.50;99.90;;;;;;5049727;28;20120;-71
2022/04/26 05:31:00;;;;;;;12.02;5.68;;;7.50;99.90;;;;;;5048565;28;20048;-71
2022/04/26 05:33:27;;;;;;;15.00;5.93;;;7.50;99.90;;;;;;5047381;28;20071;-71
2022/04/26 05:35:53;;;;;;;15.25;6.10;;;7.50;99.90;;;;;;5048629;28;20069;-70
2022/04/26 05:38:19;;;;;;;12.07;5.88;;;7.50;99.90;;;;;;5049690;28;20522;-71
2022/04/26 05:40:45;;;;;;;14.60;6.22;;;7.60;99.90;;;;;;5047960;28;20164;-71
2022/04/26 05:43:11;;;;;;;14.65;6.20;;;7.60;99.90;;;;;;5049324;28;20127;-71
2022/04/26 05:45:37;;;;;;;17.35;6.40;;;7.60;99.90;;;;;;5065893;28;20045;-71
2022/04/26 05:48:04;;;;;;;16.65;6.60;;;7.70;99.90;;;;;;5031788;28;20051;-71
2022/04/26 05:50:30;;;;;;;14.45;6.85;;;7.80;99.90;;;;;;5048770;28;20056;-70
2022/04/26 05:52:56;;;;;;;13.85;6.32;;;7.80;99.90;;;;;;5013226;28;20045;-71
2022/04/26 05:55:21;;;;;;;18.70;7.43;;;7.80;99.90;;;;;;5048098;28;20114;-71
2022/04/26 05:57:47;;;;;;;15.30;7.10;;;7.90;99.90;;;;;;5064595;28;20519;-70
2022/04/26 06:00:14;;;;;;;10.75;5.88;;;7.90;99.90;;;;;;5048511;28;20043;-71
2022/04/26 06:02:40;;;;;;;16.48;5.95;;;8.00;99.90;;;;;;5031044;28;20443;-71
2022/04/26 06:05:06;;;;;;;16.17;7.28;;;8.00;99.90;;;;;;5049130;28;20045;-70
2022/04/26 06:07:32;;;;;;;16.67;5.60;;;8.10;99.90;;;;;;5047530;28;20045;-71
2022/04/26 06:09:58;;;;;;;12.65;5.40;;;8.20;99.90;;;;;;5048354;28;20140;-70
2022/04/26 06:12:26;;;;;;;15.32;5.63;;;8.20;99.90;;;;;;5057086;28;20049;-70
2022/04/26 06:14:56;;;;;;;12.32;5.07;;;8.30;99.90;;;;;;5053819;28;20140;-71
2022/04/26 06:17:22;;;;;;;10.73;4.72;;;8.30;99.90;;;;;;5049578;28;20447;-70
2022/04/26 06:19:48;;;;;;;13.60;4.38;;;8.40;99.90;;;;;;5030661;28;20396;-70
2022/04/26 06:22:14;;;;;;;14.30;4.50;;;8.50;99.90;;;;;;5047752;28;20511;-71
2022/04/26 06:24:39;;;;;;;9.65;4.10;;;8.60;99.90;;;;;;5048062;28;20144;-70
2022/04/26 06:27:05;;;;;;;15.10;5.32;;;8.70;99.90;;;;;;5032485;28;20077;-70
2022/04/26 06:29:31;;;;;;;9.50;4.43;;;8.80;99.90;;;;;;4990109;28;20076;-70
2022/04/26 06:31:56;;;;;;;9.40;4.20;;;9.00;99.90;;;;;;5008459;28;20069;-70
2022/04/26 06:34:22;;;;;;;11.75;3.90;;;9.10;99.90;;;;;;4990860;28;20053;-70
2022/04/26 06:36:48;;;;;;;10.45;3.88;;;9.30;99.90;;;;;;5020079;28;20481;-70
2022/04/26 06:39:13;;;;;;;10.60;3.50;;;9.40;99.90;;;;;;5027877;28;20053;-71
2022/04/26 06:41:39;;;;;;;12.38;4.32;;;9.60;99.90;;;;;;5030093;28;20033;-71
2022/04/26 06:44:04;;;;;;;10.07;4.13;;;10.70;99.90;;;;;;5046680;28;20175;-71
2022/04/26 06:46:30;;;;;;;11.18;3.53;;;10.00;99.90;;;;;;5048156;28;20459;-70
2022/04/26 06:49:00;;;;;;;16.00;3.78;;;10.20;99.90;;;;;;5047242;28;20189;-71
2022/04/26 06:51:26;;;;;;;11.68;3.60;;;11.40;99.90;;;;;;5030310;28;20462;-71
2022/04/26 06:53:52;;;;;;;11.73;3.47;;;10.60;99.90;;;;;;5045294;28;20086;-71
2022/04/26 06:56:17;;;;;;;11.80;3.60;;;10.50;99.90;;;;;;5046097;28;20056;-70
2022/04/26 06:58:43;;;;;;;8.80;3.35;;;10.60;99.90;;;;;;5047261;28;20033;-70
2022/04/26 07:01:09;;;;;;;10.82;3.63;;;10.70;99.90;;;;;;5047417;28;20155;-71
2022/04/26 07:03:34;;;;;;;7.53;2.90;;;10.80;99.90;;;;;;5046667;28;20041;-71
2022/04/26 07:06:00;;;;;;;8.18;3.22;;;10.80;99.90;;;;;;5047961;28;20102;-71
2022/04/26 07:08:25;;;;;;;9.38;3.63;;;10.80;99.90;;;;;;5051653;28;20113;-70
2022/04/26 07:10:51;;;;;;;9.75;3.42;;;11.00;99.90;;;;;;5066687;28;20047;-70
2022/04/26 07:13:20;;;;;;;12.20;3.33;;;11.00;99.90;;;;;;5051694;28;20132;-71
2022/04/26 07:15:46;;;;;;;10.60;3.67;;;11.00;99.90;;;;;;5045206;28;20057;-70
2022/04/26 07:18:12;;;;;;;10.00;3.35;;;11.10;99.90;;;;;;5047746;28;20056;-71
2022/04/26 07:20:39;;;;;;;7.97;3.28;;;11.20;99.90;;;;;;5047818;28;20174;-71
2022/04/26 07:23:05;;;;;;;10.38;3.20;;;11.20;99.90;;;;;;5046334;28;20052;-71
2022/04/26 07:25:30;;;;;;;11.13;4.20;;;11.30;99.90;;;;;;5047785;28;20370;-70
2022/04/26 07:27:56;;;;;;;9.43;3.60;;;11.40;99.90;;;;;;5031375;28;20228;-71
2022/04/26 07:30:21;;;;;;;11.30;3.67;;;11.50;99.90;;;;;;5046547;28;20052;-72
2022/04/26 07:35:32;;;;;;;8.07;3.63;;;11.80;99.90;;;;;;5046625;28;20053;-72
2022/04/26 07:38:05;;;;;;;10.02;3.80;;;11.90;99.90;;;;;;5047050;28;20072;-72
2022/04/26 07:40:31;;;;;;;24.10;3.95;;;12.20;99.90;;;;;;5027459;28;20045;-72
2022/04/26 07:42:57;;;;;;;7.95;3.60;;;12.20;99.90;;;;;;5046574;28;20056;-73
2022/04/26 07:45:24;;;;;;;10.98;3.97;;;12.30;99.90;;;;;;5049906;28;20041;-72
2022/04/26 07:47:50;;;;;;;9.57;3.78;;;12.40;99.90;;;;;;5058471;28;20048;-72
2022/04/26 07:50:15;;;;;;;9.25;3.88;;;12.40;99.90;;;;;;5054035;28;20484;-74
2022/04/26 07:52:41;;;;;;;11.20;4.10;;;12.30;99.90;;;;;;5056676;28;20113;-72
2022/04/26 07:55:07;;;;;;;11.95;3.85;;;12.30;99.90;;;;;;5047571;28;20453;-72
2022/04/26 07:57:33;;;;;;;9.27;3.95;;;12.40;99.90;;;;;;5049963;28;20400;-72
2022/04/26 08:00:00;;;;;;;9.63;3.42;;;12.50;99.90;;;;;;5038175;28;20037;-72
2022/04/26 08:02:26;;;;;;;10.77;4.00;;;12.60;99.90;;;;;;5048668;28;20051;-72
2022/04/26 08:04:53;;;;;;;8.32;3.38;;;13.40;99.90;;;;;;5051087;28;20423;-72
2022/04/26 08:07:19;;;;;;;8.43;3.28;;;13.00;99.90;;;;;;5050749;28;20059;-72
2022/04/26 08:09:44;;;;;;;11.70;3.60;;;12.70;99.90;;;;;;5048550;28;20467;-72
2022/04/26 08:12:10;;;;;;;9.02;3.30;;;12.60;99.90;;;;;;5050837;28;20102;-73
2022/04/26 08:14:36;;;;;;;6.70;3.42;;;12.50;99.90;;;;;;5032909;28;20484;-73
2022/04/26 08:17:01;;;;;;;7.57;3.30;;;13.10;99.90;;;;;;5051135;28;20053;-73
2022/04/26 08:19:27;;;;;;;8.27;3.13;;;12.50;99.90;;;;;;5050116;28;20049;-73
2022/04/26 08:21:52;;;;;;;10.77;3.20;;;12.50;99.90;;;;;;5033176;28;20049;-73
2022/04/26 08:29:46;;;;;;;7.68;3.00;;;12.70;99.90;;;;;;5050340;28;20126;-73
2022/04/26 08:32:13;;;;;;;7.88;2.70;;;12.80;99.90;;;;;;5032230;28;20480;-74
2022/04/26 08:34:39;;;;;;;8.20;3.20;;;13.00;99.90;;;;;;5050411;28;20121;-72
2022/04/26 08:37:05;;;;;;;9.02;3.05;;;13.10;99.90;;;;;;5033026;28;20515;-72
2022/04/26 08:39:31;;;;;;;9.43;3.33;;;13.20;99.90;;;;;;5048549;28;20193;-72
2022/04/26 08:42:00;;;;;;;7.35;2.88;;;13.50;99.90;;;;;;5032513;28;20400;-72
2022/04/26 08:44:27;;;;;;;8.13;2.80;;;13.80;99.90;;;;;;5050666;28;20393;-71
2022/04/26 08:52:22;;;;;;;7.90;2.70;;;13.70;99.90;;;;;;5050795;28;20041;-73
2022/04/26 08:54:49;;;;;;;8.93;2.90;;;13.70;99.90;;;;;;5048625;28;20053;-72
2022/04/26 08:57:15;;;;;;;6.63;3.05;;;13.80;99.90;;;;;;5032341;28;20091;-73
2022/04/26 08:59:51;;;;;;;10.02;3.20;;;15.00;99.90;;;;;;5050156;28;20048;-73
2022/04/26 09:02:18;;;;;;;;;;;13.90;99.90;;;;;;5050469;28;20135;-73
2022/04/26 09:04:45;;;;;;;8.63;2.92;;;13.90;99.90;;;;;;5050523;28;20417;-72
2022/04/26 09:07:28;;;;;;;8.57;2.92;;;14.10;99.90;;;;;;5031420;28;20443;-72
2022/04/26 09:10:26;;;;;;;7.90;2.88;;;13.90;99.90;;;;;;5050798;28;20041;-73
2022/04/26 09:13:09;;;;;;;7.95;3.30;;;14.80;99.90;;;;;;5010161;28;20057;-73
2022/04/26 09:15:47;;;;;;;6.38;3.00;;;14.00;99.90;;;;;;5030855;28;20061;-72
2022/04/26 09:18:26;;;;;;;7.97;2.90;;;13.80;99.90;;;;;;5050168;28;20052;-72
2022/04/26 09:20:54;;;;;;;10.32;3.08;;;13.70;99.90;;;;;;5050189;28;20435;-73
2022/04/26 09:23:21;;;;;;;6.43;2.58;;;13.90;99.90;;;;;;5064523;28;20037;-72
2022/04/26 09:25:51;;;;;;;5.50;2.92;;;14.20;99.90;;;;;;5031253;28;20049;-72
2022/04/26 09:28:27;;;;;;;6.05;2.78;;;14.50;99.90;;;;;;5049112;28;20075;-74
2022/04/26 09:30:53;;;;;;;9.18;2.80;;;14.60;99.90;;;;;;5032202;28;20053;-73
2022/04/26 09:33:40;;;;;;;8.02;2.92;;;15.00;99.90;;;;;;5052128;28;20040;-72
2022/04/26 09:36:10;;;;;;;7.45;3.05;;;16.00;99.90;;;;;;5049216;28;20446;-73
2022/04/26 09:38:39;;;;;;;6.07;2.53;;;15.80;99.90;;;;;;5049053;28;20241;-73
2022/04/26 09:41:10;;;;;;;10.13;2.90;;;16.00;99.50;;;;;;5049266;28;20087;-73
2022/04/26 09:43:37;;;;;;;7.70;3.05;;;16.20;99.50;;;;;;5049237;28;20041;-73
2022/04/26 09:46:04;;;;;;;9.45;3.20;;;16.20;99.50;;;;;;5051662;28;20068;-73
2022/04/26 09:48:35;;;;;;;8.77;3.17;;;16.30;99.20;;;;;;5031938;28;20057;-73
2022/04/26 09:51:02;;;;;;;7.03;2.50;;;17.20;99.30;;;;;;5048774;28;20049;-73
2022/04/26 09:53:29;;;;;;;8.27;3.00;;;18.80;97.00;;;;;;5064189;28;20089;-73
2022/04/26 09:55:56;;;;;;;6.85;2.58;;;20.90;94.00;;;;;;5048535;28;20041;-73
2022/04/26 09:58:24;;;;;;;7.63;2.78;;;22.40;90.20;;;;;;5030806;28;20045;-74
2022/04/26 10:00:51;;;;;;;7.85;2.92;;;24.80;82.20;;;;;;5049076;28;20045;-73
2022/04/26 10:03:22;;;;;;;10.43;2.90;;;27.30;74.90;;;;;;5048829;28;21018;-74
2022/04/26 10:05:50;;;;;;;7.00;2.50;;;28.90;66.90;;;;;;5048749;28;20480;-74
2022/04/26 10:08:17;;;;;;;6.50;2.60;;;30.10;64.30;;;;;;5048464;28;20052;-74
2022/04/26 10:10:43;;;;;;;6.53;2.47;;;30.70;58.90;;;;;;5029003;28;20045;-74
2022/04/26 10:13:31;;;;;;;8.90;2.80;;;30.20;53.80;;;;;;5049156;28;20045;-72
2022/04/26 10:16:08;;;;;;;6.47;2.33;;;28.80;54.40;;;;;;5029723;28;20098;-66
2022/04/26 10:18:38;;;;;;;4.13;2.15;;;26.70;55.00;;;;;;5044579;28;20044;-68
2022/04/26 10:21:06;;;;;;;5.65;2.50;;;26.60;57.80;;;;;;5046199;28;20500;-68
2022/04/26 10:23:55;;;;;;;5.10;2.40;;;28.70;57.40;;;;;;5046228;28;20045;-69
2022/04/26 10:26:25;;;;;;;6.50;2.30;;;31.50;54.20;;;;;;5036943;28;20060;-68
2022/04/26 10:29:10;;;;;;;7.20;2.40;;;33.50;51.50;;;;;;5046547;28;20093;-68
2022/04/26 10:31:42;;;;;;;6.25;2.33;;;35.20;49.70;;;;;;5045567;28;20049;-68
2022/04/26 10:34:20;;;;;;;6.75;2.30;;;35.90;47.10;;;;;;5011815;28;20505;-67
2022/04/26 10:36:50;;;;;;;6.65;2.30;;;34.30;45.70;;;;;;5045450;28;20068;-68
2022/04/26 10:39:23;;;;;;;4.97;2.03;;;33.70;46.20;;;;;;5044643;28;20221;-70
2022/04/26 10:41:49;;;;;;;4.72;2.20;;;34.90;44.10;;;;;;5029956;28;20059;-69
2022/04/26 10:44:20;;;;;;;5.15;2.10;;;35.10;44.60;;;;;;5028313;28;20087;-68
2022/04/26 10:46:55;;;;;;;6.50;2.40;;;35.50;44.90;;;;;;5043995;28;20057;-68
2022/04/26 10:49:24;;;;;;;5.03;2.22;;;34.60;43.50;;;;;;5046281;28;20139;-71
2022/04/26 10:51:56;;;;;;;6.13;2.30;;;32.90;44.00;;;;;;5041372;28;20048;-71
2022/04/26 10:54:51;;;;;;;6.75;2.40;;;30.60;44.10;;;;;;5042751;28;20060;-71
2022/04/26 10:57:31;;;;;;;4.77;2.40;;;29.80;44.60;;;;;;5050636;28;20192;-72
2022/04/26 11:00:14;;;;;;;6.07;2.33;;;30.30;44.80;;;;;;5048093;28;20299;-72
2022/04/26 11:02:42;;;;;;;4.57;2.55;;;31.30;45.10;;;;;;5047146;28;20079;-72
2022/04/26 11:05:12;;;;;;;7.07;2.45;;;32.20;44.40;;;;;;5029850;28;20041;-71
2022/04/26 11:07:44;;;;;;;5.20;2.25;;;32.40;44.30;;;;;;5046576;28;20040;-71
2022/04/26 11:10:11;;;;;;;4.90;2.20;;;33.00;42.90;;;;;;5047658;28;20048;-72
2022/04/26 11:12:38;;;;;;;5.97;2.30;;;33.70;42.80;;;;;;5030532;28;20068;-73
2022/04/26 11:15:19;;;;;;;6.03;2.30;;;34.80;42.40;;;;;;5046567;28;20090;-73
2022/04/26 11:17:45;;;;;;;6.65;2.40;;;36.10;42.60;;;;;;5057967;28;20548;-72
2022/04/26 11:20:13;;;;;;;6.82;2.40;;;37.60;41.30;;;;;;5052766;28;20471;-72
2022/04/26 11:22:58;;;;;;;6.57;2.30;;;37.90;40.70;;;;;;5066367;28;20049;-72
2022/04/26 11:28:12;;;;;;;5.00;2.13;;;39.20;39.30;;;;;;5066503;28;20439;-71
2022/04/26 11:30:46;;;;;;;4.97;2.20;;;39.70;38.40;;;;;;5061259;28;20044;-72
2022/04/26 11:33:22;;;;;;;5.55;2.30;;;38.30;38.00;;;;;;5051576;28;20124;-71
2022/04/26 11:35:56;;;;;;;6.65;2.10;;;36.20;38.20;;;;;;5028523;28;20072;-71
2022/04/26 11:38:22;;;;;;;5.22;2.28;;;33.60;39.70;;;;;;5046386;28;20049;-72
2022/04/26 11:40:54;;;;;;;5.43;2.30;;;31.50;40.40;;;;;;5047469;28;20065;-71
2022/04/26 11:43:22;;;;;;;6.65;2.40;;;29.50;41.70;;;;;;5029702;28;20067;-71
2022/04/26 11:45:52;;;;;;;6.80;2.35;;;27.90;43.10;;;;;;5053425;28;20056;-71
2022/04/26 11:48:20;;;;;;;5.15;2.15;;;26.80;44.20;;;;;;5028511;28;20128;-71
2022/04/26 11:50:48;;;;;;;6.50;2.50;;;25.90;44.90;;;;;;5049787;28;20051;-71
2022/04/26 11:53:16;;;;;;;6.05;2.33;;;25.20;46.20;;;;;;5050798;28;20087;-71
2022/04/26 11:55:44;;;;;;;6.55;2.25;;;24.40;46.80;;;;;;5045991;28;20033;-72
2022/04/26 11:58:16;;;;;;;4.47;2.13;;;24.00;48.00;;;;;;5029717;28;20049;-71
2022/04/26 12:01:10;;;;;;;5.72;2.28;;;23.10;48.40;;;;;;5047213;28;20044;-72
2022/04/26 12:03:55;;;;;;;6.70;2.30;;;23.10;48.80;;;;;;5045523;28;20128;-72
2022/04/26 12:06:26;;;;;;;6.13;2.28;;;24.70;49.00;;;;;;5026873;28;20053;-73
2022/04/26 12:08:57;;;;;;;5.95;2.30;;;26.70;46.70;;;;;;5027004;28;20084;-71
2022/04/26 12:11:27;;;;;;;4.30;2.20;;;26.80;44.80;;;;;;5024942;28;20042;-72
2022/04/26 12:14:11;;;;;;;8.15;2.38;;;26.50;45.60;;;;;;5027148;28;20049;-72
2022/04/26 12:16:41;;;;;;;5.18;2.30;;;28.20;45.10;;;;;;5064844;28;20476;-72
2022/04/26 12:19:07;;;;;;;7.07;2.30;;;28.90;44.70;;;;;;5066893;28;20052;-71
2022/04/26 12:21:46;;;;;;;7.28;2.53;;;28.30;44.30;;;;;;5049258;28;20062;-71
2022/04/26 12:24:24;;;;;;;5.55;2.22;;;26.70;44.80;;;;;;5065679;28;20131;-72
2022/04/26 12:26:50;;;;;;;6.45;2.50;;;25.50;45.90;;;;;;5031717;28;20088;-71
2022/04/26 12:29:16;;;;;;;5.00;2.10;;;25.60;45.90;;;;;;5048506;28;20373;-72
2022/04/26 12:31:48;;;;;;;4.75;2.20;;;27.10;45.60;;;;;;5066603;28;20063;-71
2022/04/26 12:34:20;;;;;;;6.65;2.60;;;27.20;44.60;;;;;;5067153;28;20044;-71
2022/04/26 12:37:01;;;;;;;5.22;2.53;;;26.90;45.20;;;;;;5067028;28;20488;-71
2022/04/26 12:39:49;;;;;;;6.07;2.38;;;25.70;46.00;;;;;;5065422;28;20083;-71
2022/04/26 12:42:29;;;;;;;6.72;2.45;;;24.20;46.90;;;;;;5070313;28;20048;-71
2022/04/26 12:44:59;;;;;;;5.32;2.20;;;23.10;48.00;;;;;;5060631;28;20049;-71
2022/04/26 12:50:33;;;;;;;4.95;2.50;;;21.80;50.00;;;;;;5051096;28;20058;-71
2022/04/26 12:53:00;;;;;;;5.35;2.63;;;21.30;51.20;;;;;;5049052;28;20405;-71
2022/04/26 12:55:30;;;;;;;8.18;2.70;;;20.80;52.10;;;;;;5031230;28;20052;-71
2022/04/26 12:57:59;;;;;;;7.28;2.50;;;20.30;52.80;;;;;;5050689;28;20426;-71
2022/04/26 13:00:26;;;;;;;5.85;2.38;;;19.90;53.50;;;;;;5031108;28;20045;-70
2022/04/26 13:02:54;;;;;;;5.15;2.20;;;19.60;54.20;;;;;;5049537;28;20390;-70
2022/04/26 13:05:21;;;;;;;7.15;2.78;;;20.20;54.80;;;;;;5048265;28;20080;-70
2022/04/26 13:07:47;;;;;;;8.07;2.60;;;19.30;54.90;;;;;;5047908;28;20049;-70
2022/04/26 13:10:17;;;;;;;5.97;2.50;;;19.20;55.20;;;;;;5031351;28;20041;-69
2022/04/26 13:12:43;;;;;;;6.95;2.45;;;19.20;55.50;;;;;;5050410;28;20085;-69
2022/04/26 13:15:10;;;;;;;6.53;2.33;;;19.10;56.30;;;;;;5029352;28;20048;-68
2022/04/26 13:17:37;;;;;;;4.97;2.25;;;18.80;56.40;;;;;;5044124;28;20061;-67
2022/04/26 13:20:04;;;;;;;8.43;2.70;;;18.70;56.00;;;;;;5046824;28;20153;-68
2022/04/26 13:22:30;;;;;;;6.80;2.40;;;18.70;55.60;;;;;;5041745;28;20111;-68
2022/04/26 13:24:56;;;;;;;10.00;2.50;;;18.80;55.30;;;;;;5043189;28;20532;-68
2022/04/26 13:27:21;;;;;;;7.28;2.70;;;18.80;54.90;;;;;;5044990;28;20091;-68
2022/04/26 13:29:49;;;;;;;6.50;2.83;;;18.70;55.80;;;;;;5046437;28;20167;-68
2022/04/26 13:32:16;;;;;;;8.57;2.70;;;18.50;56.00;;;;;;5045906;28;20148;-68
2022/04/26 13:34:43;;;;;;;6.43;2.67;;;18.50;56.10;;;;;;5044661;28;20053;-69
2022/04/26 13:37:09;;;;;;;8.07;2.88;;;18.20;56.50;;;;;;5045715;28;20522;-67
2022/04/26 13:39:35;;;;;;;7.45;2.92;;;18.80;57.80;;;;;;5044298;28;20484;-67
2022/04/26 13:42:02;;;;;;;6.10;2.83;;;18.50;58.30;;;;;;5045607;28;20048;-67
2022/04/26 13:44:28;;;;;;;6.28;3.08;;;18.10;59.20;;;;;;5010860;28;20069;-68
2022/04/26 13:46:54;;;;;;;7.25;3.00;;;18.00;60.00;;;;;;5044074;28;20048;-67
2022/04/26 13:49:19;;;;;;;8.35;3.20;;;17.60;60.40;;;;;;5041758;28;20044;-67
2022/04/26 13:51:45;;;;;;;7.93;2.97;;;17.50;61.20;;;;;;5045004;28;20041;-67
2022/04/26 13:54:11;;;;;;;9.00;2.90;;;17.30;62.10;;;;;;5045094;28;20200;-67
2022/04/26 13:56:37;;;;;;;6.95;2.92;;;17.10;63.10;;;;;;5044483;28;20118;-68
2022/04/26 13:59:02;;;;;;;6.85;2.70;;;17.20;64.00;;;;;;5045373;28;20052;-68
2022/04/26 14:01:28;;;;;;;7.30;2.90;;;17.10;65.10;;;;;;5047393;28;20041;-68
2022/04/26 14:03:54;;;;;;;6.72;2.97;;;17.10;66.00;;;;;;5043656;28;20527;-68
2022/04/26 14:06:21;;;;;;;8.15;3.50;;;17.20;66.30;;;;;;5044767;28;20045;-68
2022/04/26 14:08:49;;;;;;;6.43;2.88;;;17.20;66.90;;;;;;5044627;28;20052;-67
2022/04/26 14:11:16;;;;;;;6.93;3.10;;;17.20;68.40;;;;;;5044159;28;20048;-67
2022/04/26 14:21:54;;;;;;;8.00;2.70;;;17.10;76.40;;;;;;5028387;28;20049;-69
2022/04/26 14:24:20;;;;;;;6.13;2.70;;;17.10;76.10;;;;;;5027206;28;20116;-68
2022/04/26 14:26:46;;;;;;;7.35;3.03;;;17.00;77.30;;;;;;5006149;28;20041;-68
2022/04/26 14:29:12;;;;;;;5.35;2.75;;;16.80;77.70;;;;;;5014357;28;20502;-69
2022/04/26 14:31:38;;;;;;;6.07;2.63;;;16.80;79.20;;;;;;5026311;28;20041;-68
2022/04/26 14:34:04;;;;;;;6.80;2.80;;;16.40;81.80;;;;;;5010990;28;20045;-71
2022/04/26 14:36:29;;;;;;;5.28;2.55;;;16.50;82.70;;;;;;5048241;28;20067;-70
2022/04/26 14:38:55;;;;;;;7.13;2.75;;;16.30;84.40;;;;;;5046823;28;20132;-68
2022/04/26 14:41:21;;;;;;;7.53;2.50;;;16.10;86.50;;;;;;5047677;28;20049;-68
2022/04/26 14:43:46;;;;;;;5.60;2.90;;;16.10;89.70;;;;;;5048200;28;20041;-68
2022/04/26 14:46:12;;;;;;;8.30;3.00;;;16.20;90.60;;;;;;5047265;28;20044;-68
2022/04/26 14:48:38;;;;;;;7.10;2.75;;;16.20;91.50;;;;;;5048505;28;20116;-66
2022/04/26 14:51:04;;;;;;;7.25;3.05;;;16.20;91.70;;;;;;5031788;28;20517;-67
2022/04/26 14:53:30;;;;;;;6.57;2.92;;;16.30;91.40;;;;;;5030398;28;20154;-66
2022/04/26 14:55:58;;;;;;;7.35;3.00;;;16.30;91.60;;;;;;5047204;28;20088;-67
2022/04/26 14:58:23;;;;;;;5.75;2.78;;;16.20;91.50;;;;;;5046549;28;20539;-66
2022/04/26 15:00:49;;;;;;;5.68;2.72;;;16.00;92.10;;;;;;5057195;28;20120;-66
2022/04/26 15:03:14;;;;;;;8.55;3.10;;;16.20;92.70;;;;;;5037452;28;20045;-67
2022/04/26 15:05:40;;;;;;;7.78;2.60;;;15.70;93.10;;;;;;5048894;28;20077;-67
2022/04/26 15:10:50;;;;;;;8.00;2.80;;;15.40;95.00;;;;;;5067517;28;20045;-67
2022/04/26 15:18:44;;;;;;;6.20;3.13;;;15.30;96.20;;;;;;5046791;28;20052;-68
2022/04/26 15:21:10;;;;;;;5.38;2.80;;;15.30;96.60;;;;;;5046764;28;20420;-66
2022/04/26 15:23:36;;;;;;;6.22;2.88;;;15.10;96.50;;;;;;5027348;28;20049;-67
2022/04/26 15:26:06;;;;;;;9.07;3.13;;;15.00;96.80;;;;;;5052887;28;20033;-67
2022/04/26 15:28:33;;;;;;;7.05;2.95;;;15.00;97.00;;;;;;5049548;28;20440;-67
2022/04/26 15:31:01;;;;;;;5.13;2.97;;;15.00;97.50;;;;;;5062624;28;20067;-68
2022/04/26 15:33:26;;;;;;;7.57;3.03;;;15.00;97.60;;;;;;5067293;28;20060;-68
2022/04/26 15:35:52;;;;;;;7.68;3.10;;;15.30;97.40;;;;;;5066849;28;20052;-67
2022/04/26 15:38:18;;;;;;;9.88;3.00;;;14.90;97.30;;;;;;5048519;28;20041;-67
2022/04/26 15:40:46;;;;;;;8.80;2.83;;;15.00;97.40;;;;;;5053482;28;20374;-67
2022/04/26 15:43:13;;;;;;;5.72;2.80;;;15.10;97.10;;;;;;5060762;28;20133;-67
2022/04/26 15:45:39;;;;;;;7.72;2.80;;;15.20;97.30;;;;;;5028429;28;20049;-68
2022/04/26 15:48:05;;;;;;;7.10;3.05;;;14.90;97.00;;;;;;5046731;28;20093;-68
2022/04/26 15:50:31;;;;;;;6.82;2.88;;;14.80;97.10;;;;;;5047421;28;20052;-68
2022/04/26 15:52:57;;;;;;;7.15;2.70;;;14.70;97.30;;;;;;5040726;28;20057;-68
2022/04/26 15:55:23;;;;;;;8.98;3.45;;;14.80;97.20;;;;;;5040982;28;20124;-68
2022/04/26 15:57:53;;;;;;;6.90;2.90;;;14.70;96.90;;;;;;5009225;28;20064;-68
2022/04/26 16:00:20;;;;;;;6.63;3.00;;;14.80;96.90;;;;;;5026291;28;20378;-68
2022/04/26 16:02:51;;;;;;;6.95;3.00;;;14.60;96.90;;;;;;5025122;28;20049;-68
2022/04/26 16:05:17;;;;;;;5.72;2.72;;;14.40;97.00;;;;;;5042711;28;20084;-67
2022/04/26 16:07:43;;;;;;;6.65;2.70;;;14.40;97.30;;;;;;5026135;28;20128;-67
2022/04/26 16:21:06;;;;;;;6.40;3.05;;;13.80;99.10;;;;;;5031807;28;20461;-66
2022/04/26 16:23:32;;;;;;;7.03;2.85;;;13.80;99.70;;;;;;5032105;28;20119;-67
2022/04/26 16:26:05;;;;;;;7.95;2.97;;;13.80;99.90;;;;;;5017106;28;20523;-67
2022/04/26 16:28:33;;;;;;;6.15;2.92;;;13.80;99.90;;;;;;5050381;28;20063;-67
2022/04/26 16:31:00;;;;;;;9.25;3.42;;;13.90;99.80;;;;;;5049899;28;20120;-68
2022/04/26 16:33:25;;;;;;;8.07;3.15;;;13.70;99.70;;;;;;5053291;28;20120;-67
2022/04/26 16:35:52;;;;;;;10.43;3.35;;;13.60;99.80;;;;;;5052959;28;20056;-68
2022/04/26 16:38:18;;;;;;;8.15;2.80;;;13.50;99.90;;;;;;5032309;28;20504;-68
2022/04/26 16:40:47;;;;;;;7.65;3.08;;;13.40;99.90;;;;;;5049925;28;20045;-68
2022/04/26 16:43:16;;;;;;;7.63;3.20;;;13.30;99.90;;;;;;5050456;28;20037;-68
2022/04/26 16:45:46;;;;;;;6.70;2.83;;;13.40;99.90;;;;;;5049996;28;20063;-68
2022/04/26 16:48:12;;;;;;;7.07;2.83;;;13.50;99.90;;;;;;5050313;28;20052;-68
2022/04/26 16:50:38;;;;;;;6.97;3.20;;;13.60;99.90;;;;;;5033068;28;20428;-70
2022/04/26 16:53:04;;;;;;;6.78;3.00;;;13.70;99.70;;;;;;5031382;28;20045;-68
2022/04/26 16:55:32;;;;;;;7.53;3.55;;;14.50;99.70;;;;;;5049291;28;20344;-66
2022/04/26 16:57:58;;;;;;;7.13;3.20;;;13.70;99.70;;;;;;5049991;28;20084;-66
2022/04/26 17:00:25;;;;;;;5.82;3.10;;;13.60;99.70;;;;;;5049713;28;20056;-67
2022/04/26 17:02:51;;;;;;;7.13;2.80;;;13.50;99.70;;;;;;5052695;28;20084;-66
2022/04/26 17:05:19;;;;;;;7.72;3.10;;;13.80;99.80;;;;;;5051766;28;20479;-66
2022/04/26 17:07:46;;;;;;;5.82;2.95;;;13.60;99.90;;;;;;5050664;28;20091;-66
2022/04/26 17:10:12;;;;;;;9.40;3.00;;;13.30;99.90;;;;;;5049467;28;20044;-67
2022/04/26 17:12:39;;;;;;;9.43;2.90;;;13.10;99.90;;;;;;5048907;28;20132;-67
2022/04/26 17:15:06;;;;;;;8.63;3.00;;;13.00;99.90;;;;;;5045226;28;20054;-67